Аэропорт: Ханты-Мансийск. Ханты-Мансийск

ICAO: USHH

METAR:
2020-08-13 11:30:00
USHH 131130Z 01003MPS 330V040 CAVOK 18/05 Q1007 R06/010060 NOSIG
METAR:
2020-08-13 07:47:00
TAF USHH 130747Z 1309/1409 34003G10MPS 9999 SCT030 TEMPO 1309/1315 01004G12MPS SCT020CB